<?xml version="1.0" encoding="UTF-8" standalone="no" ?>
<gpx xmlns="http://www.topografix.com/GPX/1/1" xmlns:xsi="http://www.w3.org/2001/XMLSchema-instance" xsi:schemaLocation="http://www.topografix.com/GPX/1/1 http://www.topografix.com/GPX/1/1/gpx.xsd" version="1.1" creator="VisuGPX - https://www.visugpx.com">
  <metadata>
    <name>Nocturne Faumont 2025 : 44 km sportif</name>
    <desc><![CDATA[Trace de la Nocturne de Faumont 2025 : Grand parcours sportif de 44 km]]></desc>
  </metadata>
  <trk>
    <name><![CDATA[Nocturne Faumont 2025 : 44 km sportif-20428777]]></name>
    <extensions>
      <line xmlns="http://www.topografix.com/GPX/gpx_style/0/2">
        <color>0000FF</color>
        <width>4</width>
      </line>
    </extensions>
    <trkseg>
      <trkpt lat="50.4576" lon="3.13742">
        <ele>41</ele>
        <time>2025-05-25T12:43:53Z</time>
      </trkpt>
      <trkpt lat="50.45757" lon="3.13678">
        <ele>42</ele>
        <time>2025-05-25T12:44:03Z</time>
      </trkpt>
      <trkpt lat="50.46161" lon="3.1369">
        <ele>37</ele>
        <time>2025-05-25T12:45:37Z</time>
      </trkpt>
      <trkpt lat="50.46205" lon="3.13686">
        <ele>36</ele>
        <time>2025-05-25T12:45:47Z</time>
      </trkpt>
      <trkpt lat="50.46221" lon="3.13671">
        <ele>36</ele>
        <time>2025-05-25T12:45:52Z</time>
      </trkpt>
      <trkpt lat="50.46235" lon="3.1367">
        <ele>35</ele>
        <time>2025-05-25T12:45:55Z</time>
      </trkpt>
      <trkpt lat="50.46244" lon="3.13684">
        <ele>35</ele>
        <time>2025-05-25T12:45:58Z</time>
      </trkpt>
      <trkpt lat="50.46299" lon="3.13705">
        <ele>35</ele>
        <time>2025-05-25T12:46:11Z</time>
      </trkpt>
      <trkpt lat="50.46319" lon="3.13393">
        <ele>36</ele>
        <time>2025-05-25T12:46:58Z</time>
      </trkpt>
      <trkpt lat="50.46347" lon="3.13032">
        <ele>35</ele>
        <time>2025-05-25T12:47:52Z</time>
      </trkpt>
      <trkpt lat="50.46388" lon="3.12898">
        <ele>34</ele>
        <time>2025-05-25T12:48:14Z</time>
      </trkpt>
      <trkpt lat="50.46523" lon="3.12673">
        <ele>35</ele>
        <time>2025-05-25T12:49:00Z</time>
      </trkpt>
      <trkpt lat="50.46617" lon="3.12485">
        <ele>34</ele>
        <time>2025-05-25T12:49:35Z</time>
      </trkpt>
      <trkpt lat="50.46668" lon="3.12162">
        <ele>35</ele>
        <time>2025-05-25T12:50:25Z</time>
      </trkpt>
      <trkpt lat="50.46734" lon="3.11868">
        <ele>39</ele>
        <time>2025-05-25T12:51:11Z</time>
      </trkpt>
      <trkpt lat="50.46751" lon="3.11713">
        <ele>38</ele>
        <time>2025-05-25T12:51:34Z</time>
      </trkpt>
      <trkpt lat="50.46748" lon="3.11514">
        <ele>37</ele>
        <time>2025-05-25T12:52:04Z</time>
      </trkpt>
      <trkpt lat="50.46756" lon="3.11417">
        <ele>38</ele>
        <time>2025-05-25T12:52:19Z</time>
      </trkpt>
      <trkpt lat="50.46774" lon="3.11349">
        <ele>40</ele>
        <time>2025-05-25T12:52:30Z</time>
      </trkpt>
      <trkpt lat="50.46804" lon="3.1128">
        <ele>39</ele>
        <time>2025-05-25T12:52:42Z</time>
      </trkpt>
      <trkpt lat="50.46793" lon="3.11274">
        <ele>39</ele>
        <time>2025-05-25T12:52:45Z</time>
      </trkpt>
      <trkpt lat="50.46762" lon="3.11289">
        <ele>39</ele>
        <time>2025-05-25T12:52:52Z</time>
      </trkpt>
      <trkpt lat="50.4665" lon="3.11302">
        <ele>36</ele>
        <time>2025-05-25T12:53:18Z</time>
      </trkpt>
      <trkpt lat="50.46657" lon="3.11214">
        <ele>38</ele>
        <time>2025-05-25T12:53:32Z</time>
      </trkpt>
      <trkpt lat="50.46665" lon="3.11188">
        <ele>38</ele>
        <time>2025-05-25T12:53:36Z</time>
      </trkpt>
      <trkpt lat="50.46704" lon="3.1085">
        <ele>42</ele>
        <time>2025-05-25T12:54:27Z</time>
      </trkpt>
      <trkpt lat="50.46715" lon="3.10843">
        <ele>42</ele>
        <time>2025-05-25T12:54:30Z</time>
      </trkpt>
      <trkpt lat="50.46759" lon="3.10834">
        <ele>44</ele>
        <time>2025-05-25T12:54:40Z</time>
      </trkpt>
      <trkpt lat="50.46772" lon="3.10743">
        <ele>45</ele>
        <time>2025-05-25T12:54:54Z</time>
      </trkpt>
      <trkpt lat="50.46796" lon="3.10691">
        <ele>43</ele>
        <time>2025-05-25T12:55:04Z</time>
      </trkpt>
      <trkpt lat="50.46798" lon="3.1066">
        <ele>42</ele>
        <time>2025-05-25T12:55:08Z</time>
      </trkpt>
      <trkpt lat="50.46774" lon="3.10538">
        <ele>40</ele>
        <time>2025-05-25T12:55:27Z</time>
      </trkpt>
      <trkpt lat="50.46774" lon="3.10442">
        <ele>40</ele>
        <time>2025-05-25T12:55:41Z</time>
      </trkpt>
      <trkpt lat="50.46737" lon="3.10205">
        <ele>42</ele>
        <time>2025-05-25T12:56:18Z</time>
      </trkpt>
      <trkpt lat="50.46749" lon="3.10107">
        <ele>42</ele>
        <time>2025-05-25T12:56:33Z</time>
      </trkpt>
      <trkpt lat="50.46755" lon="3.10098">
        <ele>42</ele>
        <time>2025-05-25T12:56:34Z</time>
      </trkpt>
      <trkpt lat="50.46776" lon="3.10009">
        <ele>43</ele>
        <time>2025-05-25T12:56:49Z</time>
      </trkpt>
      <trkpt lat="50.4681" lon="3.09939">
        <ele>43</ele>
        <time>2025-05-25T12:57:02Z</time>
      </trkpt>
      <trkpt lat="50.46903" lon="3.09791">
        <ele>46</ele>
        <time>2025-05-25T12:57:33Z</time>
      </trkpt>
      <trkpt lat="50.46939" lon="3.09708">
        <ele>46</ele>
        <time>2025-05-25T12:57:48Z</time>
      </trkpt>
      <trkpt lat="50.46982" lon="3.09719">
        <ele>47</ele>
        <time>2025-05-25T12:57:58Z</time>
      </trkpt>
      <trkpt lat="50.47014" lon="3.09735">
        <ele>47</ele>
        <time>2025-05-25T12:58:06Z</time>
      </trkpt>
      <trkpt lat="50.47097" lon="3.0979">
        <ele>49</ele>
        <time>2025-05-25T12:58:27Z</time>
      </trkpt>
      <trkpt lat="50.47289" lon="3.09957">
        <ele>56</ele>
        <time>2025-05-25T12:59:18Z</time>
      </trkpt>
      <trkpt lat="50.47455" lon="3.09959">
        <ele>64</ele>
        <time>2025-05-25T12:59:57Z</time>
      </trkpt>
      <trkpt lat="50.47741" lon="3.10027">
        <ele>81</ele>
        <time>2025-05-25T13:01:04Z</time>
      </trkpt>
      <trkpt lat="50.47826" lon="3.10131">
        <ele>91</ele>
        <time>2025-05-25T13:01:29Z</time>
      </trkpt>
      <trkpt lat="50.47839" lon="3.10183">
        <ele>92</ele>
        <time>2025-05-25T13:01:38Z</time>
      </trkpt>
      <trkpt lat="50.47896" lon="3.10182">
        <ele>93</ele>
        <time>2025-05-25T13:01:51Z</time>
      </trkpt>
      <trkpt lat="50.47939" lon="3.10152">
        <ele>92</ele>
        <time>2025-05-25T13:02:02Z</time>
      </trkpt>
      <trkpt lat="50.47981" lon="3.10117">
        <ele>90</ele>
        <time>2025-05-25T13:02:13Z</time>
      </trkpt>
      <trkpt lat="50.47997" lon="3.10087">
        <ele>90</ele>
        <time>2025-05-25T13:02:19Z</time>
      </trkpt>
      <trkpt lat="50.48002" lon="3.10065">
        <ele>90</ele>
        <time>2025-05-25T13:02:22Z</time>
      </trkpt>
      <trkpt lat="50.48016" lon="3.09982">
        <ele>91</ele>
        <time>2025-05-25T13:02:35Z</time>
      </trkpt>
      <trkpt lat="50.48069" lon="3.09742">
        <ele>94</ele>
        <time>2025-05-25T13:03:13Z</time>
      </trkpt>
      <trkpt lat="50.48075" lon="3.09673">
        <ele>93</ele>
        <time>2025-05-25T13:03:23Z</time>
      </trkpt>
      <trkpt lat="50.4799" lon="3.09625">
        <ele>84</ele>
        <time>2025-05-25T13:03:44Z</time>
      </trkpt>
      <trkpt lat="50.47963" lon="3.09483">
        <ele>78</ele>
        <time>2025-05-25T13:04:06Z</time>
      </trkpt>
      <trkpt lat="50.47948" lon="3.09445">
        <ele>75</ele>
        <time>2025-05-25T13:04:13Z</time>
      </trkpt>
      <trkpt lat="50.4791" lon="3.09271">
        <ele>71</ele>
        <time>2025-05-25T13:04:40Z</time>
      </trkpt>
      <trkpt lat="50.47898" lon="3.09182">
        <ele>70</ele>
        <time>2025-05-25T13:04:54Z</time>
      </trkpt>
      <trkpt lat="50.47867" lon="3.09108">
        <ele>68</ele>
        <time>2025-05-25T13:05:07Z</time>
      </trkpt>
      <trkpt lat="50.47813" lon="3.09027">
        <ele>63</ele>
        <time>2025-05-25T13:05:24Z</time>
      </trkpt>
      <trkpt lat="50.47799" lon="3.08915">
        <ele>61</ele>
        <time>2025-05-25T13:05:41Z</time>
      </trkpt>
      <trkpt lat="50.4765" lon="3.08774">
        <ele>54</ele>
        <time>2025-05-25T13:06:22Z</time>
      </trkpt>
      <trkpt lat="50.47797" lon="3.08497">
        <ele>53</ele>
        <time>2025-05-25T13:07:16Z</time>
      </trkpt>
      <trkpt lat="50.47878" lon="3.08416">
        <ele>54</ele>
        <time>2025-05-25T13:07:38Z</time>
      </trkpt>
      <trkpt lat="50.47935" lon="3.08384">
        <ele>55</ele>
        <time>2025-05-25T13:07:52Z</time>
      </trkpt>
      <trkpt lat="50.4799" lon="3.08338">
        <ele>55</ele>
        <time>2025-05-25T13:08:07Z</time>
      </trkpt>
      <trkpt lat="50.48042" lon="3.08261">
        <ele>53</ele>
        <time>2025-05-25T13:08:23Z</time>
      </trkpt>
      <trkpt lat="50.48075" lon="3.08171">
        <ele>48</ele>
        <time>2025-05-25T13:08:39Z</time>
      </trkpt>
      <trkpt lat="50.48084" lon="3.08088">
        <ele>49</ele>
        <time>2025-05-25T13:08:51Z</time>
      </trkpt>
      <trkpt lat="50.4808" lon="3.07965">
        <ele>49</ele>
        <time>2025-05-25T13:09:10Z</time>
      </trkpt>
      <trkpt lat="50.48067" lon="3.07921">
        <ele>48</ele>
        <time>2025-05-25T13:09:17Z</time>
      </trkpt>
      <trkpt lat="50.47992" lon="3.07589">
        <ele>49.3</ele>
      </trkpt>
      <trkpt lat="50.4794" lon="3.07437">
        <ele>51</ele>
      </trkpt>
      <trkpt lat="50.47911" lon="3.07219">
        <ele>52</ele>
      </trkpt>
      <trkpt lat="50.47906" lon="3.07055">
        <ele>53</ele>
      </trkpt>
      <trkpt lat="50.48191" lon="3.07055">
        <ele>50.1</ele>
      </trkpt>
      <trkpt lat="50.48286" lon="3.07018">
        <ele>49</ele>
      </trkpt>
      <trkpt lat="50.48641" lon="3.07058">
        <ele>46</ele>
      </trkpt>
      <trkpt lat="50.48888" lon="3.07079">
        <ele>44</ele>
      </trkpt>
      <trkpt lat="50.48936" lon="3.07061">
        <ele>44</ele>
      </trkpt>
      <trkpt lat="50.48979" lon="3.07064">
        <ele>44</ele>
      </trkpt>
      <trkpt lat="50.49078" lon="3.07142">
        <ele>44.1</ele>
      </trkpt>
      <trkpt lat="50.49099" lon="3.07138">
        <ele>44</ele>
      </trkpt>
      <trkpt lat="50.49136" lon="3.07094">
        <ele>44.1</ele>
      </trkpt>
    </trkseg>
  </trk>
</gpx>